createdAt,value
2022-12-12T00:04:36.772Z,28.08
2022-12-12T00:09:38.952Z,31.45
2022-12-12T00:14:41.054Z,33.63
2022-12-12T00:19:44.547Z,38.08
2022-12-12T00:24:47.806Z,35.03
2022-12-12T00:29:52.488Z,32.22
2022-12-12T00:34:56.027Z,36.00
2022-12-12T00:39:58.135Z,35.97
2022-12-12T00:45:00.307Z,32.53
2022-12-12T00:50:04.214Z,35.65
2022-12-12T00:55:07.111Z,36.67
2022-12-12T01:00:12.798Z,32.35
2022-12-12T01:05:17.340Z,34.42
2022-12-12T01:10:20.096Z,33.40
2022-12-12T01:15:22.529Z,35.90
2022-12-12T01:20:27.735Z,35.10
2022-12-12T01:25:30.043Z,37.90
2022-12-12T01:30:32.178Z,35.22
2022-12-12T01:35:35.798Z,38.22
2022-12-12T01:40:37.916Z,39.17
2022-12-12T01:46:28.388Z,42.33
2022-12-12T01:51:33.033Z,41.22
2022-12-12T01:56:36.384Z,41.28
2022-12-12T02:01:39.851Z,40.72
2022-12-12T02:06:43.897Z,43.38
2022-12-12T02:11:49.237Z,35.85
2022-12-12T02:17:43.579Z,40.80
2022-12-12T02:23:19.847Z,41.10
2022-12-12T02:29:22.232Z,40.72
2022-12-12T02:34:34.154Z,42.55
2022-12-12T02:39:45.321Z,44.83
2022-12-12T02:44:56.035Z,36.85
2022-12-12T02:50:04.881Z,45.78
2022-12-12T02:55:07.840Z,43.83
2022-12-12T03:00:12.687Z,40.70
2022-12-12T03:05:39.539Z,42.85
2022-12-12T03:10:51.081Z,40.20
2022-12-12T03:15:59.637Z,41.00
2022-12-12T03:21:06.817Z,41.33
2022-12-12T03:26:14.921Z,42.50
2022-12-12T03:31:23.824Z,43.20
2022-12-12T03:36:33.046Z,40.13
2022-12-12T03:41:40.684Z,40.53
2022-12-12T03:46:48.841Z,45.33
2022-12-12T03:51:58.915Z,43.47
2022-12-12T03:57:07.566Z,41.85
2022-12-12T04:02:16.669Z,42.25
2022-12-12T04:07:24.709Z,39.97
2022-12-12T04:12:35.074Z,35.92
2022-12-12T04:17:42.766Z,47.13
2022-12-12T04:22:52.369Z,42.78
2022-12-12T04:28:00.920Z,45.58
2022-12-12T04:33:09.301Z,46.10
2022-12-12T04:38:18.771Z,44.80
2022-12-12T04:43:25.973Z,44.80
2022-12-12T04:48:37.036Z,43.45
2022-12-12T04:53:48.720Z,62.95
2022-12-12T04:58:51.288Z,46.33
2022-12-12T05:03:57.645Z,43.53
2022-12-12T05:09:01.933Z,44.90
2022-12-12T05:14:04.012Z,47.03
2022-12-12T05:19:06.509Z,42.10
2022-12-12T05:24:10.412Z,40.67
2022-12-12T05:29:12.478Z,38.55
2022-12-12T05:34:14.617Z,43.83
2022-12-12T05:39:18.080Z,40.92
2022-12-12T05:44:21.440Z,43.65
2022-12-12T05:49:23.685Z,43.20
2022-12-12T05:54:27.177Z,41.47
2022-12-12T05:59:29.429Z,43.80
2022-12-12T06:04:31.571Z,36.38
2022-12-12T06:09:35.565Z,39.17
2022-12-12T06:14:37.677Z,38.42
2022-12-12T06:19:39.894Z,34.92
2022-12-12T06:24:43.711Z,43.42
2022-12-12T06:29:45.976Z,43.80
2022-12-12T06:34:48.158Z,45.28
2022-12-12T06:39:52.280Z,41.10
2022-12-12T06:44:54.508Z,44.83
2022-12-12T06:49:56.666Z,107.88
2022-12-12T06:55:00.445Z,45.67
2022-12-12T07:00:03.445Z,44.03
2022-12-12T07:05:06.094Z,46.92
2022-12-12T07:10:10.023Z,45.75
2022-12-12T07:15:16.349Z,46.08
2022-12-12T07:20:18.714Z,46.63
2022-12-12T07:25:22.289Z,42.97
2022-12-12T07:30:24.471Z,43.50
2022-12-12T07:35:26.780Z,44.95
2022-12-12T07:40:30.657Z,45.20
2022-12-12T07:45:33.404Z,45.17
2022-12-12T07:50:35.594Z,45.85
2022-12-12T07:55:40.189Z,45.80
2022-12-12T08:00:43.382Z,44.63
2022-12-12T08:05:45.575Z,44.08
2022-12-12T08:10:49.399Z,46.28
2022-12-12T08:15:52.213Z,45.65
2022-12-12T08:20:54.334Z,40.63
2022-12-12T08:25:57.828Z,42.58
2022-12-12T08:31:01.340Z,41.88
2022-12-12T08:36:12.279Z,46.65
2022-12-12T08:41:16.442Z,44.38
2022-12-12T08:46:20.188Z,40.55
2022-12-12T08:51:22.839Z,39.10
2022-12-12T08:56:26.739Z,46.70
2022-12-12T09:01:29.048Z,48.47
2022-12-12T09:06:31.239Z,44.88
2022-12-12T09:11:34.818Z,45.13
2022-12-12T09:16:37.269Z,47.45
2022-12-12T09:21:39.448Z,45.53
2022-12-12T09:26:42.937Z,49.80
2022-12-12T09:31:45.074Z,48.65
2022-12-12T09:36:47.339Z,49.25
2022-12-12T09:41:50.967Z,51.53
2022-12-12T09:46:56.412Z,47.97
2022-12-12T09:51:59.454Z,46.80
2022-12-12T09:57:17.387Z,47.70
2022-12-12T10:02:52.699Z,51.45
2022-12-12T10:08:04.819Z,46.88
2022-12-12T10:13:17.716Z,49.88
2022-12-12T10:18:26.989Z,45.22
2022-12-12T10:23:35.920Z,47.17
2022-12-12T10:28:39.583Z,45.40
2022-12-12T10:33:54.484Z,42.58
2022-12-12T10:39:12.062Z,43.08
2022-12-12T10:44:29.917Z,46.45
2022-12-12T10:49:33.848Z,54.50
2022-12-12T10:54:43.764Z,45.88
2022-12-12T10:59:49.009Z,50.67
2022-12-12T11:05:09.594Z,50.58
2022-12-12T11:10:29.214Z,46.22
2022-12-12T11:15:44.416Z,47.30
2022-12-12T11:20:49.905Z,52.97
2022-12-12T11:25:56.774Z,47.55
2022-12-12T11:31:04.319Z,53.45
2022-12-12T11:36:07.355Z,51.67
2022-12-12T11:41:11.678Z,53.28
2022-12-12T11:46:20.212Z,50.38
2022-12-12T11:51:35.435Z,60.55
2022-12-12T11:56:46.016Z,46.55
2022-12-12T12:02:00.028Z,55.78
2022-12-12T12:07:17.374Z,43.22
2022-12-12T12:12:25.010Z,50.92
2022-12-12T12:17:44.486Z,48.50
2022-12-12T12:22:57.246Z,49.42
2022-12-12T12:28:26.459Z,54.67
2022-12-12T12:33:55.751Z,49.33
2022-12-12T12:39:10.661Z,45.17
2022-12-12T12:44:27.844Z,51.45
2022-12-12T12:49:36.690Z,49.45
2022-12-12T12:54:40.875Z,51.15
2022-12-12T12:59:47.011Z,47.28
2022-12-12T13:04:57.162Z,41.22
2022-12-12T13:10:06.674Z,50.42
2022-12-12T13:15:19.901Z,47.55
2022-12-12T13:20:25.496Z,50.60
2022-12-12T13:25:36.166Z,46.70
2022-12-12T13:30:53.447Z,44.72
2022-12-12T13:36:05.815Z,44.40
2022-12-12T13:41:09.945Z,49.05
2022-12-12T13:46:40.695Z,44.65
2022-12-12T13:51:45.649Z,45.50
2022-12-12T13:57:05.090Z,43.38
2022-12-12T14:02:31.083Z,38.80
2022-12-12T14:07:35.552Z,45.77
2022-12-12T14:12:37.813Z,50.63
2022-12-12T14:17:42.948Z,47.05
2022-12-12T14:23:24.101Z,52.40
2022-12-12T14:28:29.014Z,43.88
2022-12-12T14:34:12.911Z,65.50
2022-12-12T14:39:25.661Z,88.18
2022-12-12T14:44:36.395Z,60.13
2022-12-12T14:49:41.311Z,116.38
2022-12-12T14:54:45.052Z,50.58
2022-12-12T14:59:47.730Z,58.30
2022-12-12T15:04:53.422Z,50.88
2022-12-12T15:09:57.151Z,49.40
2022-12-12T15:14:59.863Z,72.45
2022-12-12T15:20:04.831Z,52.60
2022-12-12T15:25:18.719Z,55.58
2022-12-12T15:30:46.059Z,54.28
2022-12-12T15:35:52.278Z,50.65
2022-12-12T15:40:59.488Z,55.17
2022-12-12T15:46:04.490Z,52.08
2022-12-12T15:51:07.392Z,72.75
2022-12-12T15:56:13.196Z,62.03
2022-12-12T16:01:21.113Z,72.15
2022-12-12T16:06:25.921Z,48.80
2022-12-12T16:11:41.370Z,57.42
2022-12-12T16:16:45.416Z,57.70
2022-12-12T16:21:47.527Z,59.53
2022-12-12T16:26:51.217Z,54.00
2022-12-12T16:31:53.445Z,58.15
2022-12-12T16:36:55.579Z,53.63
2022-12-12T16:41:59.256Z,53.03
2022-12-12T16:47:01.436Z,56.05
2022-12-12T16:52:03.732Z,59.38
2022-12-12T16:57:07.437Z,49.60
2022-12-12T17:02:19.417Z,60.88
2022-12-12T17:07:21.644Z,63.95
2022-12-12T17:12:25.139Z,60.45
2022-12-12T17:17:27.283Z,67.82
2022-12-12T17:22:29.912Z,59.90
2022-12-12T17:27:33.434Z,63.13
2022-12-12T17:32:36.323Z,57.75
2022-12-12T17:37:38.742Z,62.30
2022-12-12T17:42:42.769Z,63.08
2022-12-12T17:47:44.915Z,63.33
2022-12-12T17:52:47.075Z,67.38
2022-12-12T17:57:50.626Z,77.97
2022-12-12T18:02:52.760Z,52.58
2022-12-12T18:07:54.957Z,46.10
2022-12-12T18:12:58.644Z,58.92
2022-12-12T18:18:00.804Z,68.65
2022-12-12T18:23:02.972Z,60.97
2022-12-12T18:28:06.529Z,57.45
2022-12-12T18:33:09.503Z,63.78
2022-12-12T18:38:11.717Z,63.90
2022-12-12T18:43:15.267Z,47.38
2022-12-12T18:48:20.167Z,59.50
2022-12-12T18:53:22.932Z,58.20
2022-12-12T18:58:29.133Z,58.17
2022-12-12T19:03:31.376Z,57.95
2022-12-12T19:08:33.645Z,63.97
2022-12-12T19:13:38.272Z,63.25
2022-12-12T19:18:42.837Z,60.60
2022-12-12T19:23:45.589Z,64.53
2022-12-12T19:28:49.140Z,61.85
2022-12-12T19:33:51.776Z,63.25
2022-12-12T19:38:56.918Z,60.50
2022-12-12T19:44:02.441Z,86.78
2022-12-12T19:49:06.770Z,69.47
2022-12-12T19:54:13.329Z,62.63
2022-12-12T19:59:19.066Z,77.32
2022-12-12T20:04:22.869Z,70.35
2022-12-12T20:09:27.859Z,82.97
2022-12-12T20:14:34.165Z,71.85
2022-12-12T20:19:36.335Z,68.25
2022-12-12T20:24:38.651Z,66.15
2022-12-12T20:29:45.520Z,86.97
2022-12-12T20:34:48.205Z,70.10
2022-12-12T20:39:50.367Z,52.97
2022-12-12T20:44:53.946Z,68.72
2022-12-12T20:49:56.245Z,59.95
2022-12-12T20:54:58.406Z,64.93
2022-12-12T21:00:02.006Z,53.67
2022-12-12T21:05:04.524Z,66.60
2022-12-12T21:10:07.165Z,60.85
2022-12-12T21:15:11.442Z,55.83
2022-12-12T21:20:13.508Z,69.22
2022-12-12T21:25:15.909Z,67.90
2022-12-12T21:30:20.876Z,59.40
2022-12-12T21:35:23.033Z,57.95
2022-12-12T21:40:25.318Z,57.22
2022-12-12T21:45:28.882Z,57.97
2022-12-12T21:50:31.327Z,55.45
2022-12-12T21:55:36.450Z,52.05
2022-12-12T22:00:39.992Z,56.20
2022-12-12T22:05:42.045Z,49.33
2022-12-12T22:10:44.150Z,48.28
2022-12-12T22:15:57.239Z,57.28
2022-12-12T22:21:03.926Z,60.72
2022-12-12T22:26:14.304Z,59.75
2022-12-12T22:31:18.350Z,52.97
2022-12-12T22:36:24.875Z,54.75
2022-12-12T22:41:28.582Z,55.28
2022-12-12T22:46:33.243Z,54.60
2022-12-12T22:51:35.374Z,55.42
2022-12-12T22:56:38.372Z,55.67
2022-12-12T23:01:42.897Z,53.13
2022-12-12T23:06:45.550Z,57.97
2022-12-12T23:11:47.937Z,61.35
2022-12-12T23:16:52.008Z,50.13
2022-12-12T23:21:54.079Z,55.05
2022-12-12T23:26:56.276Z,51.80
2022-12-12T23:32:00.054Z,52.08
2022-12-12T23:37:02.201Z,58.63
2022-12-12T23:42:04.373Z,55.88
2022-12-12T23:47:07.864Z,58.85
2022-12-12T23:52:09.958Z,48.45
2022-12-12T23:57:12.060Z,49.13
